Enter the Airport ICAO Code

Search by Airport or City

Current Weather

LEST | Santiago de Compostela Airport

Santiago de Compostela, Galicia, Spain

Last Update 28 Minutes Ago

Sky with Few Clouds

Temperature of 07 ºC

Light to Moderate Winds from East

Temperature

07 ºC

Dew Point Temperature

02 ºC

Relative Humidity

70.51 %

Wind Direction

East (070º, Ranging from 020º to 140º)

Wind Velocity

13 km/h (07 kt)

Gusts

None

Visibility

Greater than 10 Kilometers

Sea Level Pressure

1023 hPa (Hectopascals)

Layers of Clouds

5% to 30% of Sky Covered from 366 mts (1200 ft) Above Ground Level.

METAR LEST 091000Z 07007KT 020V140 9999 FEW012 07/02 Q1023 NOSIG

Weather Forecast

LEST | Santiago de Compostela Airport

Santiago de Compostela, Galicia, Spain

Forecast valid for the next 20 Hours

From now on it is expected:

Sky with Few Clouds

Light to Moderate Winds from NorthEast

Maximum Temperature

12 ºC in 5 Hours

Minimum Temperature

01 ºC in 20 Hours

TAF LEST 090500Z 0906/1006 03008KT 9999 FEW035 TX12/0915Z TN01/1006Z